Tonawanda, NY

8:57 AM EST on December 28, 2014 (GMT -0500)
Park Village | Change Station
CLOSE
Current Station
Personal Weather Station
Location: North Tonawanda, NY
Elevation: 580 ft
Nearby Weather Stations

Elev 580 ft 43.02 °N, 78.85 °W | Updated 6 minutes ago

Overcast
Overcast
36.3 °F
Feels Like 28 °F
N
12.9
Wind Variable Wind from West
Gusts 16.3 mph

Today
High -- | Low -- °F
--% Chance of Precip.
Yesterday
High -- | Low -- °F
Precip. -- in
7:46 AM 4:48 PM
Waxing Crescent, 48% visible
Pressure 29.99 in
Visibility 10.0 miles
Clouds Few 700 ft
Scattered Clouds 1300 ft
Overcast 2000 ft
Windchill 28 °F
Dew Point 36 °F
Humidity 99%
Rainfall 0.18 in
Snow Depth Not available.
UV 0 out of 12
Pollen .10 out of 12
Air Quality Not available.
Flu Activity Not available.
METAR KBUF 281254Z 30008KT 10SM FEW007 SCT013 OVC020 03/01 A2997 RMK AO2 DZE12 SLP153 P0000 T00330006 $

More Conditions Fewer Conditions

Pressure 29.99 in
Visibility 10.0 miles
Clouds Few 700 ft
Scattered Clouds 1300 ft
Overcast 2000 ft
Windchill 28 °F
Dew Point 36 °F
Humidity 99%
Rainfall 0.18 in
Snow Depth Not available.
UV 0 out of 12
Pollen .10 out of 12
Air Quality Not available.
Flu Activity Not available.
METAR KBUF 281254Z 30008KT 10SM FEW007 SCT013 OVC020 03/01 A2997 RMK AO2 DZE12 SLP153 P0000 T00330006 $

More Conditions Fewer Conditions

10-Day Weather Forecast

Almanac

Astronomy

Dec. 28, 2014 Rise Set
Actual Time
Civil Twilight
Nautical Twilight
Astronomical Twilight
Moon
Length of Visible Light
Length of Day
Tomorrow will be .
, % of the Moon is Illuminated

Today's Extremes

State Highs State Lows

Community

WunderPhotos

Upload Photos

1,781,262 photos uploaded!

WunderBlogs® & News

Nearby

Air Quality

  Air Quality AQ Index Pollutant
Not available.

Snow Depth

Station Depth Elevation

Earthquake Activity

City Distance Mag. Time & Date
Minimum magnitude displayed is 2.5.

Coastal Water Temperatures

Place Temperature

Nearby Weather Stations